Time;durP1;ratioP1;P1;durP2;ratioP2;P2;SDS_P1;SDS_P2;PMS_P1;PMS_P2;Temp;Humidity;BMP_temperature;BMP_pressure;BME280_temperature;BME280_humidity;BME280_pressure;Samples;Min_cycle;Max_cycle;Signal;HPM_P1;HPM_P2
2022/03/14 00:00:43;;;;;;;21.10;16.65;;;10.60;99.90;;;;;;5079134;28;20251;-66
2022/03/14 00:03:14;;;;;;;22.92;15.98;;;10.80;99.90;;;;;;5079266;28;20208;-66
2022/03/14 00:05:41;;;;;;;23.40;18.27;;;11.00;99.90;;;;;;5078932;28;20592;-66
2022/03/14 00:08:08;;;;;;;19.98;15.70;;;11.10;99.90;;;;;;5078236;28;20269;-66
2022/03/14 00:10:35;;;;;;;21.05;16.70;;;11.20;99.90;;;;;;5078127;28;20204;-66
2022/03/14 00:13:03;;;;;;;17.60;14.88;;;11.20;99.90;;;;;;5077019;28;20212;-67
2022/03/14 00:15:32;;;;;;;15.68;13.25;;;11.30;99.90;;;;;;5078983;28;20206;-66
2022/03/14 00:18:03;;;;;;;16.40;12.90;;;11.30;99.90;;;;;;5078992;28;20204;-66
2022/03/14 00:20:30;;;;;;;12.30;11.00;;;11.30;99.90;;;;;;5079371;28;20329;-66
2022/03/14 00:22:58;;;;;;;12.57;11.10;;;11.20;1.00;;;;;;5077573;28;20694;-67
2022/03/14 00:25:24;;;;;;;18.33;12.18;;;11.20;1.00;;;;;;5078833;28;20204;-66
2022/03/14 00:27:50;;;;;;;11.93;9.85;;;11.10;99.90;;;;;;5079106;28;20345;-66
2022/03/14 00:30:17;;;;;;;13.60;9.50;;;11.00;99.90;;;;;;5079520;28;20263;-66
2022/03/14 00:32:44;;;;;;;11.52;9.55;;;10.90;99.90;;;;;;5078800;28;20575;-66
2022/03/14 00:35:10;;;;;;;11.55;10.15;;;10.80;99.90;;;;;;5079014;28;20204;-66
2022/03/14 00:37:38;;;;;;;9.15;8.25;;;10.80;99.90;;;;;;5078916;28;20250;-66
2022/03/14 00:40:07;;;;;;;9.20;8.30;;;10.60;99.90;;;;;;5079186;28;20329;-66
2022/03/14 00:42:35;;;;;;;9.55;8.48;;;10.50;99.90;;;;;;5078561;28;20200;-67
2022/03/14 00:45:03;;;;;;;8.45;7.18;;;10.40;99.90;;;;;;5077350;28;20200;-67
2022/03/14 00:47:29;;;;;;;5.97;5.47;;;10.40;99.90;;;;;;5078644;28;20263;-67
2022/03/14 00:49:56;;;;;;;7.93;6.55;;;10.40;99.90;;;;;;5078435;28;20211;-67
2022/03/14 00:52:22;;;;;;;8.88;6.65;;;10.30;99.90;;;;;;5078220;28;20219;-67
2022/03/14 00:54:49;;;;;;;6.60;5.90;;;10.20;99.90;;;;;;5079520;28;20283;-67
2022/03/14 00:57:16;;;;;;;5.82;5.22;;;10.10;99.90;;;;;;5078817;28;20218;-67
2022/03/14 00:59:42;;;;;;;6.43;5.82;;;10.10;99.90;;;;;;5079617;28;20291;-67
2022/03/14 01:02:09;;;;;;;6.15;5.40;;;10.10;99.90;;;;;;5079144;28;20671;-67
2022/03/14 01:04:35;;;;;;;4.78;4.35;;;10.00;99.90;;;;;;5079267;28;20203;-66
2022/03/14 01:07:02;;;;;;;4.07;3.67;;;9.90;99.90;;;;;;5078934;28;20314;-66
2022/03/14 01:09:30;;;;;;;3.85;3.53;;;9.80;99.90;;;;;;5079297;28;20211;-66
2022/03/14 01:11:56;;;;;;;4.30;3.92;;;9.70;99.90;;;;;;5074355;28;20196;-66
2022/03/14 01:14:24;;;;;;;3.20;3.00;;;9.60;99.90;;;;;;5073601;28;20210;-66
2022/03/14 01:16:54;;;;;;;4.05;3.08;;;9.40;99.90;;;;;;5073964;28;20204;-67
2022/03/14 01:19:21;;;;;;;3.38;2.75;;;9.20;99.90;;;;;;5074184;28;20598;-67
2022/03/14 01:21:48;;;;;;;2.60;2.10;;;9.00;99.90;;;;;;5074409;28;20192;-67
2022/03/14 01:24:14;;;;;;;2.10;2.00;;;8.90;99.90;;;;;;5074166;28;20204;-67
2022/03/14 01:26:40;;;;;;;2.35;2.15;;;8.90;99.90;;;;;;5074590;28;20196;-67
2022/03/14 01:29:07;;;;;;;1.75;1.65;;;8.80;99.90;;;;;;5075306;28;20208;-67
2022/03/14 01:31:34;;;;;;;2.10;1.90;;;8.80;99.90;;;;;;5074018;28;20689;-67
2022/03/14 01:34:01;;;;;;;1.83;1.73;;;8.70;99.90;;;;;;5075019;28;20220;-67
2022/03/14 01:36:27;;;;;;;2.95;1.90;;;8.70;99.90;;;;;;5080898;28;20788;-67
2022/03/14 01:38:55;;;;;;;1.67;1.58;;;8.60;99.90;;;;;;5080051;28;20203;-67
2022/03/14 01:41:26;;;;;;;2.28;1.95;;;8.60;99.90;;;;;;5080402;28;20204;-67
2022/03/14 01:43:53;;;;;;;5.65;1.73;;;8.50;99.90;;;;;;5080599;28;20203;-67
2022/03/14 01:46:19;;;;;;;1.73;1.63;;;8.40;99.90;;;;;;5080298;28;20663;-67
2022/03/14 01:48:46;;;;;;;2.47;2.28;;;8.40;99.90;;;;;;5080193;28;20612;-67
2022/03/14 01:51:14;;;;;;;3.08;1.75;;;8.40;99.90;;;;;;5080728;28;20260;-67
2022/03/14 01:53:41;;;;;;;1.67;1.40;;;8.40;99.90;;;;;;5080467;28;20215;-67
2022/03/14 01:56:12;;;;;;;1.60;1.50;;;8.30;99.90;;;;;;5080585;28;20200;-67
2022/03/14 01:58:39;;;;;;;1.60;1.50;;;8.30;99.90;;;;;;5080341;28;20196;-67
2022/03/14 02:01:06;;;;;;;1.70;1.60;;;8.30;99.90;;;;;;5080471;28;20239;-67
2022/03/14 02:03:32;;;;;;;1.70;1.60;;;8.30;99.90;;;;;;5080677;28;20203;-67
2022/03/14 02:05:59;;;;;;;1.77;1.67;;;8.30;99.90;;;;;;5080151;28;20227;-67
2022/03/14 02:08:25;;;;;;;1.75;1.65;;;8.30;99.90;;;;;;5080551;28;20204;-67
2022/03/14 02:10:52;;;;;;;3.58;1.50;;;8.20;99.90;;;;;;5080423;28;20195;-68
2022/03/14 02:13:18;;;;;;;2.10;2.00;;;8.20;99.90;;;;;;5080078;28;20254;-67
2022/03/14 02:15:46;;;;;;;1.92;1.83;;;8.20;99.90;;;;;;5079939;28;20192;-67
2022/03/14 02:18:12;;;;;;;1.92;1.83;;;8.10;99.90;;;;;;5079649;28;20260;-67
2022/03/14 02:20:39;;;;;;;1.65;1.55;;;8.10;99.90;;;;;;5079757;28;20202;-67
2022/03/14 02:23:05;;;;;;;1.52;1.42;;;8.10;99.90;;;;;;5080592;28;20601;-67
2022/03/14 02:25:35;;;;;;;1.88;1.60;;;8.10;99.90;;;;;;5080850;28;20203;-67
2022/03/14 02:28:03;;;;;;;1.60;1.50;;;8.00;99.90;;;;;;5082533;28;20662;-67
2022/03/14 02:30:29;;;;;;;3.00;2.20;;;8.00;99.90;;;;;;5081410;28;20211;-67
2022/03/14 02:32:58;;;;;;;3.30;3.00;;;7.90;99.90;;;;;;5083136;28;20242;-67
2022/03/14 02:35:24;;;;;;;2.15;2.05;;;8.00;99.90;;;;;;5082309;28;20256;-67
2022/03/14 02:37:51;;;;;;;2.78;2.58;;;8.00;99.90;;;;;;5083423;28;20196;-67
2022/03/14 02:40:17;;;;;;;2.22;2.13;;;8.00;99.90;;;;;;5083977;28;20196;-67
2022/03/14 02:42:43;;;;;;;2.05;1.95;;;8.00;99.90;;;;;;5084312;28;20211;-67
2022/03/14 02:45:10;;;;;;;2.47;2.28;;;7.90;99.90;;;;;;5082890;28;20298;-67
2022/03/14 02:47:38;;;;;;;2.85;2.20;;;7.90;99.90;;;;;;5081447;28;20211;-67
2022/03/14 02:50:05;;;;;;;2.47;2.00;;;7.90;99.90;;;;;;5082393;28;20203;-67
2022/03/14 02:52:31;;;;;;;2.47;2.28;;;7.90;99.90;;;;;;5082743;28;20204;-66
2022/03/14 02:54:58;;;;;;;2.40;2.30;;;7.80;99.90;;;;;;5082144;28;20741;-66
2022/03/14 02:57:25;;;;;;;2.92;2.35;;;7.90;99.90;;;;;;5082595;28;20298;-66
2022/03/14 02:59:51;;;;;;;2.30;2.20;;;7.90;99.90;;;;;;5082964;28;20249;-66
2022/03/14 03:02:18;;;;;;;2.00;1.77;;;7.80;99.90;;;;;;5082696;28;20211;-66
2022/03/14 03:04:44;;;;;;;2.10;2.00;;;7.80;99.90;;;;;;5081845;28;20200;-66
2022/03/14 03:07:11;;;;;;;3.38;3.08;;;7.80;99.90;;;;;;5081899;28;20624;-66
2022/03/14 03:09:37;;;;;;;4.55;4.15;;;7.80;99.90;;;;;;5082186;28;20199;-66
2022/03/14 03:12:08;;;;;;;7.57;6.88;;;7.80;99.90;;;;;;5082619;28;20677;-67
2022/03/14 03:14:35;;;;;;;3.25;3.05;;;7.80;99.90;;;;;;5082167;28;20215;-67
2022/03/14 03:17:01;;;;;;;4.68;4.28;;;7.80;99.90;;;;;;5081781;28;20208;-67
2022/03/14 03:19:28;;;;;;;4.40;3.97;;;7.80;99.90;;;;;;5081871;28;20259;-67
2022/03/14 03:21:54;;;;;;;1.30;1.20;;;7.80;99.90;;;;;;5081676;28;20264;-67
2022/03/14 03:24:21;;;;;;;2.72;2.53;;;7.80;99.90;;;;;;5081488;28;20260;-67
2022/03/14 03:26:47;;;;;;;5.85;5.25;;;7.80;99.90;;;;;;5079116;28;20248;-67
2022/03/14 03:29:13;;;;;;;3.05;2.28;;;7.80;99.90;;;;;;5081195;28;20200;-67
2022/03/14 03:31:40;;;;;;;3.13;2.88;;;7.80;99.90;;;;;;5081744;28;20294;-67
2022/03/14 03:34:07;;;;;;;8.85;6.35;;;7.80;99.90;;;;;;5081928;28;20219;-67
2022/03/14 03:36:33;;;;;;;27.85;16.00;;;7.80;99.90;;;;;;5082554;28;20196;-66
2022/03/14 03:38:59;;;;;;;44.15;32.40;;;7.80;99.90;;;;;;5081828;28;20230;-66
2022/03/14 03:41:26;;;;;;;5.10;4.60;;;7.70;99.90;;;;;;5081760;28;20311;-68
2022/03/14 03:43:52;;;;;;;4.30;3.90;;;7.70;99.90;;;;;;5081651;28;20282;-66
2022/03/14 03:46:19;;;;;;;2.30;2.13;;;7.70;99.90;;;;;;5081836;28;20211;-66
2022/03/14 03:48:45;;;;;;;16.52;12.23;;;7.70;99.90;;;;;;5081687;28;20196;-66
2022/03/14 03:51:12;;;;;;;3.15;2.70;;;7.70;99.90;;;;;;5080302;28;20706;-66
2022/03/14 03:53:38;;;;;;;1.20;1.20;;;7.60;99.90;;;;;;5080914;28;20224;-66
2022/03/14 03:56:04;;;;;;;3.70;3.50;;;7.70;99.90;;;;;;5080846;28;20278;-66
2022/03/14 03:58:31;;;;;;;8.57;7.78;;;7.70;99.90;;;;;;5080649;28;20287;-67
2022/03/14 04:00:57;;;;;;;2.75;2.65;;;7.70;99.90;;;;;;5080519;28;20283;-66
2022/03/14 04:03:24;;;;;;;6.22;5.63;;;7.70;99.90;;;;;;5079880;28;20352;-66
2022/03/14 04:05:50;;;;;;;3.17;2.97;;;7.70;99.90;;;;;;5078552;28;20764;-66
2022/03/14 04:08:17;;;;;;;1.65;1.52;;;7.70;99.90;;;;;;5078814;28;20257;-66
2022/03/14 04:10:43;;;;;;;1.77;1.67;;;7.70;99.90;;;;;;5079174;28;20203;-66
2022/03/14 04:13:13;;;;;;;2.65;1.73;;;7.60;99.90;;;;;;5079418;28;20832;-66
2022/03/14 04:15:54;;;;;;;2.05;1.95;;;7.60;99.90;;;;;;5079308;28;20275;-66
2022/03/14 04:18:22;;;;;;;2.88;2.70;;;7.60;99.90;;;;;;5079689;28;20206;-66
2022/03/14 04:20:49;;;;;;;4.88;4.40;;;7.60;99.90;;;;;;5079251;28;20207;-66
2022/03/14 04:23:17;;;;;;;5.65;5.10;;;7.60;99.90;;;;;;5078953;28;20294;-66
2022/03/14 04:25:44;;;;;;;6.95;4.20;;;7.60;99.90;;;;;;5078909;28;20726;-66
2022/03/14 04:28:14;;;;;;;1.85;1.40;;;7.70;99.90;;;;;;5079154;28;20208;-66
2022/03/14 04:30:41;;;;;;;5.80;4.20;;;7.70;99.90;;;;;;5079159;28;20761;-66
2022/03/14 04:33:09;;;;;;;2.80;2.30;;;7.70;99.90;;;;;;5078806;28;20306;-66
2022/03/14 04:35:36;;;;;;;4.72;2.78;;;7.70;99.90;;;;;;5078728;28;20253;-66
2022/03/14 04:38:04;;;;;;;7.85;4.60;;;7.70;99.90;;;;;;5076757;28;20290;-66
2022/03/14 04:40:34;;;;;;;5.57;4.18;;;7.70;99.90;;;;;;5079109;28;20200;-66
2022/03/14 04:43:08;;;;;;;7.25;5.57;;;7.70;99.90;;;;;;5079389;28;20238;-66
2022/03/14 04:45:36;;;;;;;8.40;5.80;;;7.70;99.90;;;;;;5079892;28;20307;-66
2022/03/14 04:48:04;;;;;;;5.53;3.22;;;7.70;99.90;;;;;;5079844;28;20200;-66
2022/03/14 04:50:31;;;;;;;8.23;2.58;;;7.70;99.90;;;;;;5080047;28;20643;-66
2022/03/14 04:52:58;;;;;;;1.73;1.60;;;7.70;99.90;;;;;;5079407;28;20259;-66
2022/03/14 04:55:24;;;;;;;2.55;1.63;;;7.70;99.90;;;;;;5079517;28;20325;-66
2022/03/14 04:57:51;;;;;;;3.85;1.85;;;7.70;99.90;;;;;;5078432;28;20282;-66
2022/03/14 05:00:17;;;;;;;2.58;2.05;;;7.70;99.90;;;;;;5078109;28;20206;-66
2022/03/14 05:02:44;;;;;;;3.80;2.25;;;7.70;99.90;;;;;;5078813;28;20207;-66
2022/03/14 05:05:11;;;;;;;3.95;1.90;;;7.70;99.90;;;;;;5079256;28;20287;-66
2022/03/14 05:07:38;;;;;;;5.22;2.15;;;7.70;99.90;;;;;;5079386;28;20271;-66
2022/03/14 05:10:06;;;;;;;3.03;1.95;;;7.60;99.90;;;;;;5078150;28;20219;-66
2022/03/14 05:12:34;;;;;;;2.00;1.55;;;7.60;99.90;;;;;;5079897;28;20261;-66
2022/03/14 05:15:01;;;;;;;3.08;1.88;;;7.60;99.90;;;;;;5079663;28;20279;-66
2022/03/14 05:17:30;;;;;;;2.42;2.13;;;7.60;99.90;;;;;;5079794;28;20772;-66
2022/03/14 05:19:57;;;;;;;8.98;2.35;;;7.60;99.90;;;;;;5078259;28;20340;-66
2022/03/14 05:22:24;;;;;;;3.47;2.60;;;7.60;99.90;;;;;;5079575;28;20200;-66
2022/03/14 05:24:50;;;;;;;2.85;2.45;;;7.60;99.90;;;;;;5079011;28;20200;-66
2022/03/14 05:27:17;;;;;;;4.40;2.50;;;7.60;99.90;;;;;;5079066;28;20290;-66
2022/03/14 05:29:43;;;;;;;7.85;2.10;;;7.50;99.90;;;;;;5079240;28;20199;-65
2022/03/14 05:32:10;;;;;;;9.10;2.65;;;7.50;99.90;;;;;;5079796;28;20261;-65
2022/03/14 05:34:36;;;;;;;5.60;2.65;;;7.50;99.90;;;;;;5079363;28;20222;-65
2022/03/14 05:37:03;;;;;;;7.85;2.63;;;7.50;99.90;;;;;;5079307;28;20718;-65
2022/03/14 05:39:29;;;;;;;6.78;2.10;;;7.50;99.90;;;;;;5079219;28;20291;-65
2022/03/14 05:41:56;;;;;;;3.72;2.08;;;7.60;99.90;;;;;;5079616;28;20337;-65
2022/03/14 05:44:22;;;;;;;6.68;2.13;;;7.60;99.90;;;;;;5079697;28;20199;-66
2022/03/14 05:46:48;;;;;;;6.07;2.28;;;7.60;99.90;;;;;;5079044;28;20287;-66
2022/03/14 05:49:15;;;;;;;7.10;1.80;;;7.60;99.90;;;;;;5077423;28;20687;-66
2022/03/14 05:51:41;;;;;;;3.65;1.77;;;7.60;99.90;;;;;;5079543;28;20203;-66
2022/03/14 05:54:08;;;;;;;6.88;2.20;;;7.60;99.90;;;;;;5078950;28;20245;-66
2022/03/14 05:56:35;;;;;;;5.47;1.90;;;7.70;99.90;;;;;;5079022;28;20603;-66
2022/03/14 05:59:02;;;;;;;13.05;2.13;;;7.70;99.90;;;;;;5080768;28;20200;-66
2022/03/14 06:01:29;;;;;;;5.60;2.15;;;7.70;99.90;;;;;;5079072;28;20207;-66
2022/03/14 06:03:55;;;;;;;7.72;2.90;;;7.70;99.90;;;;;;5079393;28;20290;-66
2022/03/14 06:06:21;;;;;;;3.97;2.42;;;7.70;99.90;;;;;;5077546;28;20273;-66
2022/03/14 06:08:48;;;;;;;6.40;2.10;;;7.70;99.90;;;;;;5079037;28;20540;-66
2022/03/14 06:11:15;;;;;;;2.85;2.42;;;7.70;99.90;;;;;;5078324;28;20203;-65
2022/03/14 06:13:43;;;;;;;6.55;2.00;;;7.80;99.90;;;;;;5079279;28;20292;-66
2022/03/14 06:16:10;;;;;;;5.90;2.60;;;7.70;99.90;;;;;;5078632;28;20283;-65
2022/03/14 06:18:36;;;;;;;8.60;2.38;;;7.70;99.90;;;;;;5078689;28;20317;-66
2022/03/14 06:21:03;;;;;;;6.22;2.13;;;7.70;99.90;;;;;;5079287;28;20208;-66
2022/03/14 06:23:30;;;;;;;5.93;1.80;;;7.60;99.90;;;;;;5082516;28;20259;-66
2022/03/14 06:25:57;;;;;;;4.40;2.30;;;7.70;99.90;;;;;;5081686;28;20200;-66
2022/03/14 06:28:26;;;;;;;7.28;2.30;;;7.60;99.90;;;;;;5081670;28;20259;-67
2022/03/14 06:30:52;;;;;;;10.60;2.15;;;7.60;99.90;;;;;;5082179;28;20626;-67
2022/03/14 06:33:19;;;;;;;4.93;2.00;;;7.60;99.90;;;;;;5080691;28;20200;-66
2022/03/14 06:35:46;;;;;;;7.75;2.80;;;7.60;99.90;;;;;;5082093;28;20226;-66
2022/03/14 06:38:12;;;;;;;4.43;3.08;;;7.60;99.90;;;;;;5081093;28;20683;-66
2022/03/14 06:40:41;;;;;;;5.95;2.67;;;7.60;99.90;;;;;;5082127;28;20255;-66
2022/03/14 06:43:09;;;;;;;8.25;3.33;;;7.70;99.90;;;;;;5081646;28;20329;-66
2022/03/14 06:45:37;;;;;;;6.43;2.58;;;7.70;99.90;;;;;;5082220;28;20282;-66
2022/03/14 06:48:05;;;;;;;8.60;2.50;;;7.60;99.90;;;;;;5081917;28;20200;-67
2022/03/14 06:50:32;;;;;;;4.88;2.88;;;7.70;99.90;;;;;;5081679;28;20203;-67
2022/03/14 06:52:59;;;;;;;7.95;3.67;;;7.70;99.90;;;;;;5082036;28;20528;-67
2022/03/14 06:55:26;;;;;;;8.75;3.20;;;7.70;99.90;;;;;;5081643;28;20215;-67
2022/03/14 06:57:54;;;;;;;7.78;3.40;;;7.70;99.90;;;;;;5081507;28;20200;-67
2022/03/14 07:00:20;;;;;;;6.07;2.50;;;7.70;99.90;;;;;;5080724;28;20313;-72
2022/03/14 07:02:46;;;;;;;4.47;2.55;;;7.80;99.90;;;;;;5076615;28;20198;-72
2022/03/14 07:05:17;;;;;;;6.50;2.17;;;7.80;99.90;;;;;;5074036;28;20207;-72
2022/03/14 07:07:45;;;;;;;8.82;2.83;;;7.90;99.90;;;;;;5075233;28;20176;-68
2022/03/14 07:10:13;;;;;;;13.77;4.05;;;7.90;99.90;;;;;;5077378;28;20196;-68
2022/03/14 07:12:48;;;;;;;5.22;2.65;;;7.90;99.90;;;;;;5076891;28;20206;-67
2022/03/14 07:15:22;;;;;;;4.78;2.40;;;7.90;99.90;;;;;;5076220;28;20281;-67
2022/03/14 07:17:49;;;;;;;7.28;2.35;;;7.90;99.90;;;;;;5076390;28;20203;-67
2022/03/14 07:20:19;;;;;;;6.68;2.38;;;7.80;99.90;;;;;;5076061;28;20196;-67
2022/03/14 07:22:57;;;;;;;4.30;2.35;;;7.80;99.90;;;;;;5076242;28;20200;-67
2022/03/14 07:25:25;;;;;;;3.90;2.40;;;7.80;99.90;;;;;;5074775;28;20200;-67
2022/03/14 07:27:53;;;;;;;9.65;2.95;;;7.90;99.90;;;;;;5075880;28;20196;-67
2022/03/14 07:30:20;;;;;;;5.20;2.40;;;7.90;99.90;;;;;;5076508;28;20203;-67
2022/03/14 07:32:47;;;;;;;4.78;2.85;;;7.90;99.90;;;;;;5075033;28;20202;-67
2022/03/14 07:35:14;;;;;;;10.35;2.95;;;7.90;99.90;;;;;;5075523;28;20216;-67
2022/03/14 07:37:41;;;;;;;4.05;2.10;;;7.90;99.90;;;;;;5076412;28;20200;-67
2022/03/14 07:40:11;;;;;;;7.85;3.00;;;7.90;99.90;;;;;;5075753;28;20202;-67
2022/03/14 07:42:45;;;;;;;7.82;2.47;;;7.90;99.90;;;;;;5075597;28;20196;-67
2022/03/14 07:45:13;;;;;;;4.05;2.53;;;7.80;99.90;;;;;;5075386;28;20218;-67
2022/03/14 07:47:40;;;;;;;5.60;2.28;;;7.80;99.90;;;;;;5075583;28;20210;-67
2022/03/14 07:50:08;;;;;;;4.20;2.25;;;7.80;99.90;;;;;;5075791;28;20207;-67
2022/03/14 07:52:36;;;;;;;3.30;2.88;;;7.90;99.90;;;;;;5075675;28;20606;-67
2022/03/14 07:55:04;;;;;;;10.05;2.38;;;7.90;99.90;;;;;;5075377;28;20686;-67
2022/03/14 07:57:31;;;;;;;8.85;2.35;;;7.90;99.90;;;;;;5075983;28;20227;-67
2022/03/14 07:59:59;;;;;;;9.05;2.67;;;7.90;99.90;;;;;;5076051;28;20602;-66
2022/03/14 08:02:26;;;;;;;9.80;2.88;;;7.90;99.90;;;;;;5075373;28;20683;-67
2022/03/14 08:04:52;;;;;;;9.40;2.85;;;8.10;99.90;;;;;;5075573;28;20203;-67
2022/03/14 08:07:20;;;;;;;9.05;2.35;;;8.30;99.90;;;;;;5074904;28;20604;-67
2022/03/14 08:09:48;;;;;;;8.50;2.60;;;8.40;99.90;;;;;;5075417;28;20682;-67
2022/03/14 08:12:16;;;;;;;5.60;2.00;;;8.50;99.90;;;;;;5074814;28;20212;-67
2022/03/14 08:14:43;;;;;;;2.88;2.10;;;8.60;99.90;;;;;;5074497;28;20633;-67
2022/03/14 08:17:09;;;;;;;7.80;2.45;;;8.70;99.90;;;;;;5074803;28;20200;-67
2022/03/14 08:19:36;;;;;;;10.98;2.10;;;8.80;99.90;;;;;;5075045;28;20195;-67
2022/03/14 08:22:02;;;;;;;3.17;2.25;;;8.90;99.90;;;;;;5074929;28;20206;-67
2022/03/14 08:24:29;;;;;;;4.57;1.58;;;9.00;99.90;;;;;;5075023;28;20196;-67
2022/03/14 08:26:55;;;;;;;2.97;2.15;;;9.00;99.90;;;;;;5075138;28;20272;-67
2022/03/14 08:29:22;;;;;;;3.47;1.83;;;9.00;99.90;;;;;;5073197;28;20225;-66
2022/03/14 08:31:49;;;;;;;4.20;1.83;;;8.90;99.90;;;;;;5075094;28;20207;-67
2022/03/14 08:34:15;;;;;;;4.90;2.00;;;9.10;99.90;;;;;;5056987;28;20223;-67
2022/03/14 08:36:42;;;;;;;5.90;2.00;;;9.10;99.90;;;;;;5075376;28;20203;-67
2022/03/14 08:39:10;;;;;;;6.10;1.75;;;9.20;99.90;;;;;;5074861;28;20686;-67
2022/03/14 08:41:36;;;;;;;4.00;1.73;;;9.50;99.90;;;;;;5074927;28;20200;-67
2022/03/14 08:44:04;;;;;;;2.75;1.50;;;9.50;99.90;;;;;;5073990;28;20337;-67
2022/03/14 08:46:31;;;;;;;7.82;1.80;;;9.80;99.90;;;;;;5074200;28;20215;-67
2022/03/14 08:48:57;;;;;;;5.63;1.90;;;9.90;99.90;;;;;;5074455;28;20210;-67
2022/03/14 08:51:25;;;;;;;6.00;2.70;;;9.90;99.90;;;;;;5073969;28;20208;-68
2022/03/14 08:53:52;;;;;;;5.13;2.20;;;10.10;99.90;;;;;;5073845;28;20204;-67
2022/03/14 08:56:18;;;;;;;6.25;1.83;;;10.00;99.90;;;;;;5074004;28;20203;-67
2022/03/14 08:58:45;;;;;;;4.00;1.75;;;9.90;99.90;;;;;;5074267;28;20678;-66
2022/03/14 09:01:12;;;;;;;4.60;2.00;;;9.90;99.90;;;;;;5074404;28;20207;-67
2022/03/14 09:03:38;;;;;;;7.55;1.92;;;9.80;99.90;;;;;;5074090;28;20206;-67
2022/03/14 09:06:05;;;;;;;4.80;2.10;;;9.70;99.90;;;;;;5073250;28;20714;-67
2022/03/14 09:08:34;;;;;;;5.00;1.55;;;9.90;99.90;;;;;;5073661;28;20195;-67
2022/03/14 09:11:01;;;;;;;5.25;1.77;;;10.10;99.90;;;;;;5073761;28;20597;-67
2022/03/14 09:13:29;;;;;;;3.13;2.13;;;10.30;99.90;;;;;;5073908;28;20212;-67
2022/03/14 09:15:55;;;;;;;5.25;1.83;;;10.10;99.90;;;;;;5073394;28;20224;-67
2022/03/14 09:18:29;;;;;;;5.15;2.15;;;10.10;99.90;;;;;;5073477;28;20195;-67
2022/03/14 09:20:56;;;;;;;7.32;1.92;;;10.30;99.90;;;;;;5073503;28;20188;-67
2022/03/14 09:23:24;;;;;;;4.00;1.63;;;10.50;99.90;;;;;;5073360;28;20195;-67
2022/03/14 09:25:52;;;;;;;9.05;2.00;;;10.30;99.90;;;;;;5073550;28;20256;-67
2022/03/14 09:28:20;;;;;;;4.53;1.73;;;10.70;99.90;;;;;;5073145;28;20205;-67
2022/03/14 09:30:47;;;;;;;2.88;1.70;;;10.40;99.90;;;;;;5073207;28;20585;-68
2022/03/14 09:33:13;;;;;;;3.97;1.75;;;10.80;99.90;;;;;;5072908;28;20224;-67
2022/03/14 09:35:40;;;;;;;3.63;1.77;;;10.50;99.90;;;;;;5073376;28;20683;-67
2022/03/14 09:38:06;;;;;;;5.38;1.70;;;10.40;99.90;;;;;;5073580;28;20199;-67
2022/03/14 09:40:33;;;;;;;2.03;1.83;;;10.20;99.90;;;;;;5073601;28;20210;-67
2022/03/14 09:43:01;;;;;;;5.78;1.70;;;10.20;99.90;;;;;;5071961;28;20211;-68
2022/03/14 09:45:28;;;;;;;4.25;1.85;;;10.20;99.90;;;;;;5072065;28;20208;-67
2022/03/14 09:47:59;;;;;;;6.28;1.60;;;10.60;99.90;;;;;;5073509;28;20200;-67
2022/03/14 09:50:40;;;;;;;5.85;2.42;;;10.60;99.90;;;;;;5072877;28;20218;-67
2022/03/14 09:53:09;;;;;;;4.32;1.83;;;10.90;99.90;;;;;;5073198;28;20195;-67
2022/03/14 09:55:43;;;;;;;3.92;1.90;;;10.90;99.90;;;;;;5073828;28;20215;-67
2022/03/14 09:58:11;;;;;;;6.57;1.85;;;10.80;99.90;;;;;;5077067;28;20199;-67
2022/03/14 10:00:38;;;;;;;7.22;1.92;;;11.00;99.90;;;;;;5077187;28;20200;-67
2022/03/14 10:03:04;;;;;;;5.20;1.70;;;11.30;99.90;;;;;;5076887;28;20722;-67
2022/03/14 10:05:31;;;;;;;5.35;1.50;;;11.40;99.90;;;;;;5076587;28;20239;-67
2022/03/14 10:07:58;;;;;;;6.68;2.20;;;11.60;99.90;;;;;;5076655;28;20256;-67
2022/03/14 10:10:26;;;;;;;1.88;1.73;;;11.70;99.90;;;;;;5075765;28;20502;-67
2022/03/14 10:12:53;;;;;;;8.10;1.85;;;11.80;99.90;;;;;;5076887;28;20207;-67
2022/03/14 10:15:22;;;;;;;2.00;1.50;;;12.10;99.90;;;;;;5076300;28;20488;-67
2022/03/14 10:17:49;;;;;;;5.68;2.20;;;11.90;99.90;;;;;;5076855;28;20203;-67
2022/03/14 10:20:16;;;;;;;5.07;2.22;;;12.30;99.90;;;;;;5076699;28;20687;-67
2022/03/14 10:22:44;;;;;;;6.85;2.38;;;12.30;99.90;;;;;;5075349;28;20555;-64
2022/03/14 10:25:13;;;;;;;5.57;1.60;;;12.00;99.90;;;;;;5076337;28;20233;-67
2022/03/14 10:27:44;;;;;;;5.18;1.98;;;12.10;99.90;;;;;;5076568;28;20207;-67
2022/03/14 10:30:29;;;;;;;2.35;2.15;;;12.20;99.90;;;;;;5076160;28;20200;-67
2022/03/14 10:33:14;;;;;;;5.60;1.60;;;11.90;99.90;;;;;;5075983;28;20257;-68
2022/03/14 10:35:42;;;;;;;4.88;1.67;;;12.10;99.90;;;;;;5076719;28;21199;-68
2022/03/14 10:38:11;;;;;;;3.30;1.40;;;12.00;99.90;;;;;;5076703;28;20196;-67
2022/03/14 10:40:41;;;;;;;6.80;1.70;;;12.30;99.90;;;;;;5076951;28;20632;-69
2022/03/14 10:43:22;;;;;;;5.00;1.50;;;13.00;99.90;;;;;;5077005;28;20214;-68
2022/03/14 10:45:48;;;;;;;3.65;1.48;;;12.10;99.90;;;;;;5077210;28;20180;-67
2022/03/14 10:48:15;;;;;;;5.55;1.55;;;12.00;99.90;;;;;;5079976;28;20211;-68
2022/03/14 10:50:43;;;;;;;9.02;1.83;;;12.20;99.90;;;;;;5079559;28;20212;-68
2022/03/14 10:53:18;;;;;;;4.32;1.70;;;12.00;99.90;;;;;;5080982;28;20204;-67
2022/03/14 10:55:56;;;;;;;3.40;1.48;;;11.80;99.90;;;;;;5079524;28;20578;-67
2022/03/14 10:58:30;;;;;;;5.22;1.95;;;11.60;99.90;;;;;;5077810;28;20585;-67
2022/03/14 11:01:02;;;;;;;4.35;1.70;;;11.60;99.90;;;;;;5077258;28;20234;-67
2022/03/14 11:03:34;;;;;;;3.88;2.13;;;11.70;99.90;;;;;;5077340;28;20191;-67
2022/03/14 11:06:08;;;;;;;2.85;1.70;;;11.60;99.90;;;;;;5077667;28;20235;-68
2022/03/14 11:08:47;;;;;;;5.95;2.35;;;11.70;99.90;;;;;;5077079;28;20183;-68
2022/03/14 11:11:16;;;;;;;3.00;1.40;;;11.60;99.90;;;;;;5078148;28;20556;-68
2022/03/14 11:13:49;;;;;;;7.85;1.85;;;11.60;99.90;;;;;;5079548;28;20200;-68
2022/03/14 11:16:27;;;;;;;4.93;1.70;;;12.00;99.90;;;;;;5080349;28;20603;-68
2022/03/14 11:18:54;;;;;;;5.32;1.60;;;12.30;99.90;;;;;;5080469;28;20192;-68
2022/03/14 11:21:24;;;;;;;3.45;1.48;;;12.40;99.90;;;;;;5080984;28;20207;-68
2022/03/14 11:23:52;;;;;;;2.88;1.60;;;12.40;99.90;;;;;;5080488;28;20234;-68
2022/03/14 11:26:21;;;;;;;3.40;1.30;;;12.40;99.90;;;;;;5082130;28;20579;-68
2022/03/14 11:28:50;;;;;;;4.63;2.00;;;13.30;99.90;;;;;;5084613;28;20693;-68
2022/03/14 11:31:21;;;;;;;3.57;1.60;;;13.50;99.90;;;;;;5085081;28;20736;-68
2022/03/14 11:33:48;;;;;;;2.30;1.33;;;13.90;99.90;;;;;;5085095;28;20782;-68
2022/03/14 11:36:20;;;;;;;2.07;1.60;;;14.00;99.90;;;;;;5083849;28;20672;-68
2022/03/14 11:38:47;;;;;;;5.13;1.83;;;14.40;99.90;;;;;;5081306;28;20638;-68
2022/03/14 11:41:14;;;;;;;3.27;2.40;;;14.90;99.90;;;;;;5080185;28;20685;-68
2022/03/14 11:43:41;;;;;;;1.77;1.20;;;14.80;99.90;;;;;;5082830;28;20610;-68
2022/03/14 11:46:08;;;;;;;2.87;1.70;;;13.60;99.90;;;;;;5076740;28;20581;-70
2022/03/14 11:48:35;;;;;;;1.90;1.40;;;13.70;99.90;;;;;;5075226;28;20720;-69
2022/03/14 11:51:08;;;;;;;2.40;1.73;;;13.50;99.90;;;;;;5074643;28;20679;-70
2022/03/14 11:53:36;;;;;;;2.07;1.43;;;13.50;99.90;;;;;;5075974;28;21175;-70
2022/03/14 11:56:08;;;;;;;2.60;1.63;;;13.10;99.90;;;;;;5073724;28;21073;-70
2022/03/14 11:58:51;;;;;;;4.83;1.60;;;12.90;99.90;;;;;;5075098;28;20586;-70
2022/03/14 12:01:18;;;;;;;4.80;1.60;;;13.00;99.90;;;;;;5075203;28;20930;-70
2022/03/14 12:04:02;;;;;;;6.60;2.13;;;12.80;99.90;;;;;;5074668;28;20593;-70
2022/03/14 12:06:55;;;;;;;6.10;1.83;;;12.80;99.90;;;;;;5073102;28;20985;-69
2022/03/14 12:09:27;;;;;;;3.80;1.63;;;12.50;99.90;;;;;;5073795;28;20671;-69
2022/03/14 12:11:55;;;;;;;2.00;1.40;;;12.60;99.90;;;;;;5075472;28;20601;-70
2022/03/14 12:14:45;;;;;;;5.38;2.00;;;12.80;99.90;;;;;;5074335;28;20619;-70
2022/03/14 12:17:14;;;;;;;3.40;1.90;;;13.00;99.90;;;;;;5074376;28;20226;-69
2022/03/14 12:19:55;;;;;;;5.27;1.80;;;13.50;99.90;;;;;;5076356;28;20606;-70
2022/03/14 12:22:27;;;;;;;9.37;3.23;;;14.10;99.90;;;;;;5076373;28;20572;-70
2022/03/14 12:24:54;;;;;;;5.50;1.90;;;13.80;99.90;;;;;;5076559;28;20605;-70
2022/03/14 12:27:33;;;;;;;8.03;3.40;;;13.80;99.90;;;;;;5077265;28;20621;-69
2022/03/14 12:30:05;;;;;;;3.10;1.83;;;13.60;99.90;;;;;;5075529;28;20618;-69
2022/03/14 12:32:53;;;;;;;7.00;3.03;;;13.30;99.90;;;;;;5076266;28;20560;-71
2022/03/14 12:35:22;;;;;;;2.07;1.80;;;13.10;99.90;;;;;;5075907;28;20643;-70
2022/03/14 12:38:10;;;;;;;1.87;1.50;;;13.10;99.90;;;;;;5076614;28;21176;-70
2022/03/14 12:40:36;;;;;;;4.43;2.57;;;13.00;99.90;;;;;;5077464;28;20693;-70
2022/03/14 12:43:12;;;;;;;3.40;1.87;;;13.60;99.90;;;;;;5074551;28;20618;-70
2022/03/14 12:45:58;;;;;;;3.93;2.57;;;13.70;99.90;;;;;;5074293;28;20629;-71
2022/03/14 12:48:29;;;;;;;2.33;1.67;;;14.20;99.90;;;;;;5075696;28;20600;-70
2022/03/14 12:50:59;;;;;;;3.50;1.80;;;13.50;99.90;;;;;;5075864;28;20589;-70
2022/03/14 12:53:29;;;;;;;3.70;2.00;;;13.30;99.90;;;;;;5074872;28;20614;-70
2022/03/14 12:56:02;;;;;;;2.80;2.00;;;13.40;99.90;;;;;;5075396;28;21272;-70
2022/03/14 12:58:30;;;;;;;4.40;1.70;;;13.50;99.90;;;;;;5074986;28;20575;-70